Time;durP1;ratioP1;P1;durP2;ratioP2;P2;SDS_P1;SDS_P2;PMS_P1;PMS_P2;Temp;Humidity;BMP_temperature;BMP_pressure;BME280_temperature;BME280_humidity;BME280_pressure;Samples;Min_cycle;Max_cycle;Signal;HPM_P1;HPM_P2
2023/05/07 00:02:16;;;;;;;;;;;;;;;12.91;80.50;102039.09;20709960;28;20416;-55
2023/05/07 00:12:37;;;;;;;;;;;;;;;12.87;81.06;102034.84;20714457;28;19926;-56
2023/05/07 00:22:59;;;;;;;;;;;;;;;12.80;81.30;102035.84;20698516;28;19926;-56
2023/05/07 00:33:20;;;;;;;;;;;;;;;12.69;81.64;102028.25;20706130;28;20353;-54
2023/05/07 00:43:42;;;;;;;;;;;;;;;12.63;81.67;102038.78;20701949;28;20305;-57
2023/05/07 00:54:03;;;;;;;;;;;;;;;12.57;82.09;102038.00;20706931;28;19930;-56
2023/05/07 01:04:26;;;;;;;;;;;;;;;12.38;81.36;102042.69;20703775;28;19992;-56
2023/05/07 01:14:49;;;;;;;;;;;;;;;12.29;81.39;102042.84;20701284;28;19932;-56
2023/05/07 01:25:11;;;;;;;;;;;;;;;12.23;81.82;102042.09;20706299;28;20289;-56
2023/05/07 01:35:34;;;;;;;;;;;;;;;12.12;83.02;102045.72;20712747;28;20400;-57
2023/05/07 01:45:57;;;;;;;;;;;;;;;12.02;81.42;102035.53;20693606;28;19933;-55
2023/05/07 01:56:19;;;;;;;;;;;;;;;11.91;81.76;102042.63;20695121;28;19926;-57
2023/05/07 02:06:41;;;;;;;;;;;;;;;11.88;82.07;102056.53;20691310;28;19929;-57
2023/05/07 02:17:02;;;;;;;;;;;;;;;11.85;81.91;102060.88;20710278;28;19973;-56
2023/05/07 02:27:24;;;;;;;;;;;;;;;11.90;82.41;102072.06;20711421;28;19925;-55
2023/05/07 02:37:45;;;;;;;;;;;;;;;11.83;83.26;102067.84;20691823;28;19937;-55
2023/05/07 02:48:07;;;;;;;;;;;;;;;11.70;82.32;102077.53;20706844;28;19934;-57
2023/05/07 02:58:28;;;;;;;;;;;;;;;11.71;82.50;102065.41;20695906;28;20389;-56
2023/05/07 03:08:49;;;;;;;;;;;;;;;11.74;82.39;102073.16;20706800;28;20336;-56
2023/05/07 03:19:11;;;;;;;;;;;;;;;11.68;83.49;102073.25;20724900;28;19926;-56
2023/05/07 03:29:32;;;;;;;;;;;;;;;11.61;82.68;102059.47;20715695;28;19937;-57
2023/05/07 03:39:54;;;;;;;;;;;;;;;11.50;82.58;102065.72;20712786;28;19949;-55
2023/05/07 03:50:15;;;;;;;;;;;;;;;11.36;82.19;102065.00;20722007;28;19925;-55
2023/05/07 04:00:40;;;;;;;;;;;;;;;11.31;82.11;102066.81;20702584;28;19975;-56
2023/05/07 04:11:02;;;;;;;;;;;;;;;11.35;82.69;102063.31;20712453;28;19933;-56
2023/05/07 04:21:23;;;;;;;;;;;;;;;11.32;82.18;102069.38;20724009;28;19999;-55
2023/05/07 04:31:45;;;;;;;;;;;;;;;11.30;82.83;102075.50;20710791;28;19960;-54
2023/05/07 04:42:08;;;;;;;;;;;;;;;11.27;81.84;102076.38;20692308;28;19925;-54
2023/05/07 04:52:30;;;;;;;;;;;;;;;11.36;81.79;102080.56;20699567;28;19925;-55
2023/05/07 05:02:52;;;;;;;;;;;;;;;11.35;83.12;102099.59;20708042;28;19991;-54
2023/05/07 05:13:13;;;;;;;;;;;;;;;11.26;83.73;102099.72;20704984;28;20003;-55
2023/05/07 05:23:35;;;;;;;;;;;;;;;11.22;83.99;102108.41;20699732;28;20441;-56
2023/05/07 05:33:56;;;;;;;;;;;;;;;11.25;85.16;102108.34;20704389;28;20081;-56
2023/05/07 05:44:18;;;;;;;;;;;;;;;11.27;84.15;102111.78;20711357;28;20428;-56
2023/05/07 05:54:39;;;;;;;;;;;;;;;11.26;85.23;102130.81;20701755;28;19987;-56
2023/05/07 06:05:01;;;;;;;;;;;;;;;11.24;84.88;102127.38;20700023;28;19972;-56
2023/05/07 06:15:22;;;;;;;;;;;;;;;11.32;84.86;102135.94;20708396;28;19933;-57
2023/05/07 06:25:50;;;;;;;;;;;;;;;11.36;86.02;102122.91;20693682;28;19933;-54
2023/05/07 06:36:11;;;;;;;;;;;;;;;11.49;85.90;102118.41;20697970;28;20361;-57
2023/05/07 06:46:33;;;;;;;;;;;;;;;11.52;86.46;102123.56;20701274;28;19930;-55
2023/05/07 06:56:54;;;;;;;;;;;;;;;11.56;85.28;102135.59;20711556;28;19968;-55
2023/05/07 07:07:16;;;;;;;;;;;;;;;11.50;83.83;102146.06;20699915;28;19929;-55
2023/05/07 07:17:37;;;;;;;;;;;;;;;11.58;84.89;102165.81;20694285;28;19987;-56
2023/05/07 07:27:59;;;;;;;;;;;;;;;11.75;83.96;102168.22;20702366;28;19946;-54
2023/05/07 07:38:20;;;;;;;;;;;;;;;11.89;83.65;102172.34;20694214;28;19925;-55
2023/05/07 07:48:41;;;;;;;;;;;;;;;11.94;83.90;102174.88;20697078;28;19933;-57
2023/05/07 07:59:03;;;;;;;;;;;;;;;11.97;81.58;102175.72;20716167;28;19999;-56
2023/05/07 08:09:24;;;;;;;;;;;;;;;12.05;82.87;102181.63;20707100;28;20012;-56
2023/05/07 08:19:46;;;;;;;;;;;;;;;12.04;83.31;102181.66;20689898;28;20648;-56
2023/05/07 08:30:07;;;;;;;;;;;;;;;12.10;82.72;102179.81;20713062;28;19948;-56
2023/05/07 08:40:33;;;;;;;;;;;;;;;12.18;82.47;102184.06;20716438;28;19980;-56
2023/05/07 08:50:54;;;;;;;;;;;;;;;12.23;81.27;102180.53;20715361;28;20454;-56
2023/05/07 09:01:16;;;;;;;;;;;;;;;12.34;80.42;102173.44;20705501;28;19926;-56
2023/05/07 09:11:38;;;;;;;;;;;;;;;12.53;81.07;102174.81;20702976;28;19925;-56
2023/05/07 09:22:00;;;;;;;;;;;;;;;12.82;80.54;102175.19;20708255;28;20464;-57
2023/05/07 09:32:22;;;;;;;;;;;;;;;13.00;78.90;102185.25;20709760;28;19925;-58
2023/05/07 09:42:43;;;;;;;;;;;;;;;13.15;78.34;102172.91;20700764;28;19929;-56
2023/05/07 09:53:05;;;;;;;;;;;;;;;13.36;77.39;102173.34;20688934;28;19929;-57
2023/05/07 10:03:28;;;;;;;;;;;;;;;13.67;77.03;102184.84;20704216;28;20387;-57
2023/05/07 10:13:49;;;;;;;;;;;;;;;13.85;76.17;102174.03;20699538;28;19925;-57
2023/05/07 10:24:26;;;;;;;;;;;;;;;14.00;76.89;102180.66;20709255;28;19926;-55
2023/05/07 10:34:50;;;;;;;;;;;;;;;14.18;75.16;102169.81;20709636;28;19929;-57
2023/05/07 10:45:16;;;;;;;;;;;;;;;14.49;75.32;102180.38;20705630;28;20381;-56
2023/05/07 10:55:38;;;;;;;;;;;;;;;14.87;73.41;102175.91;20693662;28;19936;-56
2023/05/07 11:06:08;;;;;;;;;;;;;;;15.34;73.94;102181.59;20692969;28;20785;-56
2023/05/07 11:16:32;;;;;;;;;;;;;;;15.26;72.86;102188.78;20700541;28;19972;-55
2023/05/07 11:26:54;;;;;;;;;;;;;;;15.57;72.73;102184.44;20704580;28;19925;-58
2023/05/07 11:37:20;;;;;;;;;;;;;;;15.55;72.55;102178.41;20710826;28;20297;-56
2023/05/07 11:47:41;;;;;;;;;;;;;;;15.48;73.16;102179.50;20706548;28;19926;-56
2023/05/07 11:58:03;;;;;;;;;;;;;;;15.46;73.08;102176.06;20696229;28;20336;-58
2023/05/07 12:08:24;;;;;;;;;;;;;;;15.51;72.75;102174.22;20704722;28;19976;-57
2023/05/07 12:18:46;;;;;;;;;;;;;;;15.56;74.29;102177.53;20705101;28;20288;-56
2023/05/07 12:29:07;;;;;;;;;;;;;;;15.56;72.60;102193.19;20724029;28;20356;-57
2023/05/07 12:39:29;;;;;;;;;;;;;;;15.45;72.77;102184.81;20701679;28;20630;-55
2023/05/07 12:49:51;;;;;;;;;;;;;;;15.39;73.42;102177.13;20694168;28;20359;-57
2023/05/07 13:00:13;;;;;;;;;;;;;;;15.58;72.74;102186.19;20715050;28;19929;-56
2023/05/07 13:10:34;;;;;;;;;;;;;;;15.90;72.87;102175.63;20700587;28;19937;-58
2023/05/07 13:20:56;;;;;;;;;;;;;;;16.07;71.13;102171.63;20718373;28;19929;-58
2023/05/07 13:31:17;;;;;;;;;;;;;;;16.16;70.01;102170.47;20692514;28;19929;-58
2023/05/07 13:41:39;;;;;;;;;;;;;;;16.48;71.64;102154.63;20699985;28;19979;-57
2023/05/07 13:52:00;;;;;;;;;;;;;;;16.60;70.59;102143.78;20713291;28;19926;-57
2023/05/07 14:02:22;;;;;;;;;;;;;;;16.59;72.25;102138.59;20703485;28;19976;-56
2023/05/07 14:12:44;;;;;;;;;;;;;;;16.56;71.74;102139.56;20698987;28;20435;-58
2023/05/07 14:23:06;;;;;;;;;;;;;;;16.56;71.98;102139.56;20708142;28;19925;-56
2023/05/07 14:33:27;;;;;;;;;;;;;;;16.68;71.85;102144.34;20710178;28;19926;-56
2023/05/07 14:43:52;;;;;;;;;;;;;;;16.75;70.52;102132.81;20696263;28;20012;-56
2023/05/07 14:54:13;;;;;;;;;;;;;;;16.96;71.28;102154.72;20693427;28;20018;-56
2023/05/07 15:04:35;;;;;;;;;;;;;;;17.14;69.98;102142.75;20706509;28;19984;-57
2023/05/07 15:14:56;;;;;;;;;;;;;;;17.35;69.42;102150.69;20717602;28;20340;-56
2023/05/07 15:25:18;;;;;;;;;;;;;;;17.60;68.50;102153.28;20708538;28;19925;-56
2023/05/07 15:35:39;;;;;;;;;;;;;;;17.47;67.64;102149.38;20723002;28;19937;-56
2023/05/07 15:46:01;;;;;;;;;;;;;;;17.35;69.38;102163.75;20705278;28;19930;-57
2023/05/07 15:56:24;;;;;;;;;;;;;;;17.45;70.09;102165.13;20715182;28;20603;-57
2023/05/07 16:06:46;;;;;;;;;;;;;;;17.51;69.49;102166.69;20714077;28;19961;-57
2023/05/07 16:17:07;;;;;;;;;;;;;;;17.92;68.95;102160.75;20721804;28;19929;-57
2023/05/07 16:27:29;;;;;;;;;;;;;;;18.05;68.80;102183.78;20707788;28;19972;-56
2023/05/07 16:37:50;;;;;;;;;;;;;;;17.67;69.24;102184.38;20694014;28;19930;-57
2023/05/07 16:48:12;;;;;;;;;;;;;;;17.54;68.42;102179.69;20714400;28;19932;-57
2023/05/07 16:58:33;;;;;;;;;;;;;;;17.59;68.30;102181.22;20698021;28;19956;-57
2023/05/07 17:08:55;;;;;;;;;;;;;;;17.73;68.08;102186.78;20691065;28;19975;-57
2023/05/07 17:19:16;;;;;;;;;;;;;;;17.72;67.46;102173.75;20713302;28;19953;-57
2023/05/07 17:29:37;;;;;;;;;;;;;;;17.65;68.79;102178.34;20703180;28;19976;-56
2023/05/07 17:39:59;;;;;;;;;;;;;;;17.53;67.46;102188.44;20713714;28;19926;-56
2023/05/07 17:50:23;;;;;;;;;;;;;;;17.17;69.00;102194.97;20690942;28;20293;-54
2023/05/07 18:00:44;;;;;;;;;;;;;;;16.86;69.35;102216.97;20684524;28;19980;-57
2023/05/07 18:11:06;;;;;;;;;;;;;;;16.58;69.70;102230.97;20694230;28;20363;-55
2023/05/07 18:21:27;;;;;;;;;;;;;;;16.36;70.21;102246.44;20705187;28;19933;-57
2023/05/07 18:31:49;;;;;;;;;;;;;;;16.19;69.95;102253.09;20697185;28;19956;-56
2023/05/07 18:42:11;;;;;;;;;;;;;;;16.04;68.64;102270.09;20693481;28;20330;-56
2023/05/07 18:52:33;;;;;;;;;;;;;;;15.94;69.63;102279.06;20690161;28;20512;-57
2023/05/07 19:02:54;;;;;;;;;;;;;;;15.77;69.89;102274.34;20696383;28;19930;-55
2023/05/07 19:13:15;;;;;;;;;;;;;;;15.60;68.79;102278.31;20685058;28;19929;-56
2023/05/07 19:23:40;;;;;;;;;;;;;;;15.52;70.74;102282.88;20703097;28;20419;-56
2023/05/07 19:34:02;;;;;;;;;;;;;;;15.44;71.29;102295.28;20689316;28;19925;-57
2023/05/07 19:44:23;;;;;;;;;;;;;;;15.31;69.32;102314.72;20686949;28;19971;-56
2023/05/07 19:54:45;;;;;;;;;;;;;;;15.28;71.19;102327.84;20704842;28;19933;-55
2023/05/07 20:05:06;;;;;;;;;;;;;;;15.13;71.29;102334.28;20709198;28;19929;-57
2023/05/07 20:15:28;;;;;;;;;;;;;;;14.94;70.72;102338.25;20709138;28;20397;-55
2023/05/07 20:25:49;;;;;;;;;;;;;;;14.87;71.08;102336.69;20701416;28;19925;-55
2023/05/07 20:36:11;;;;;;;;;;;;;;;14.75;70.37;102345.63;20710534;28;20293;-56
2023/05/07 20:46:33;;;;;;;;;;;;;;;14.63;70.91;102338.06;20722489;28;19976;-55
2023/05/07 20:56:55;;;;;;;;;;;;;;;14.47;71.01;102349.72;20718007;28;19980;-55
2023/05/07 21:07:17;;;;;;;;;;;;;;;14.44;70.52;102368.03;20701133;28;19930;-57
2023/05/07 21:17:38;;;;;;;;;;;;;;;14.35;69.50;102383.88;20710442;28;19979;-55
2023/05/07 21:28:00;;;;;;;;;;;;;;;14.24;70.55;102385.78;20702963;28;19929;-56
2023/05/07 21:38:21;;;;;;;;;;;;;;;14.05;70.74;102395.72;20707615;28;19929;-57
2023/05/07 21:48:42;;;;;;;;;;;;;;;14.04;70.49;102395.75;20709183;28;19936;-57
2023/05/07 21:59:04;;;;;;;;;;;;;;;13.95;70.42;102408.94;20708036;28;19929;-57
2023/05/07 22:09:25;;;;;;;;;;;;;;;13.87;70.93;102413.41;20700801;28;19939;-56
2023/05/07 22:19:46;;;;;;;;;;;;;;;13.81;71.00;102416.09;20704030;28;19933;-57
2023/05/07 22:30:08;;;;;;;;;;;;;;;13.66;70.76;102421.59;20695279;28;19952;-57
2023/05/07 22:40:30;;;;;;;;;;;;;;;13.58;71.15;102418.25;20701213;28;19933;-57
2023/05/07 22:50:52;;;;;;;;;;;;;;;13.50;71.83;102415.78;20696930;28;19984;-57
2023/05/07 23:01:14;;;;;;;;;;;;;;;13.36;71.88;102416.88;20700995;28;19929;-57
2023/05/07 23:11:36;;;;;;;;;;;;;;;13.27;72.68;102432.63;20693334;28;20028;-56
2023/05/07 23:21:57;;;;;;;;;;;;;;;13.19;72.65;102416.28;20690741;28;19925;-55
2023/05/07 23:32:22;;;;;;;;;;;;;;;13.03;72.90;102407.88;20721894;28;20036;-57
2023/05/07 23:42:43;;;;;;;;;;;;;;;12.93;72.56;102401.03;20726820;28;20008;-57
2023/05/07 23:53:04;;;;;;;;;;;;;;;12.80;72.79;102405.56;20719949;28;19929;-56
